Time;durP1;ratioP1;P1;durP2;ratioP2;P2;SDS_P1;SDS_P2;PMS_P1;PMS_P2;Temp;Humidity;BMP_temperature;BMP_pressure;BME280_temperature;BME280_humidity;BME280_pressure;Samples;Min_cycle;Max_cycle;Signal;HPM_P1;HPM_P2
2023/04/07 00:01:08;;;;;;;1.50;1.10;;;8.40;98.20;;;;;;5015950;28;20485;-75
2023/04/07 00:03:37;;;;;;;1.50;1.20;;;8.50;98.20;;;;;;5020212;28;20460;-75
2023/04/07 00:06:04;;;;;;;1.50;1.27;;;8.50;98.20;;;;;;5017723;28;20456;-75
2023/04/07 00:08:31;;;;;;;1.57;1.30;;;8.50;98.20;;;;;;5022268;28;20537;-75
2023/04/07 00:10:57;;;;;;;1.50;1.20;;;8.50;98.20;;;;;;5021581;28;20465;-75
2023/04/07 00:13:26;;;;;;;1.57;1.20;;;8.50;98.20;;;;;;5040635;28;20491;-76
2023/04/07 00:15:52;;;;;;;1.50;1.20;;;8.50;98.20;;;;;;5021609;28;20576;-74
2023/04/07 00:18:19;;;;;;;1.50;1.10;;;8.50;98.20;;;;;;5023879;28;20543;-76
2023/04/07 00:20:46;;;;;;;1.50;1.23;;;8.50;98.20;;;;;;5018184;28;20848;-74
2023/04/07 00:23:13;;;;;;;1.53;1.20;;;8.50;98.20;;;;;;5040926;28;20472;-74
2023/04/07 00:25:39;;;;;;;1.50;1.10;;;8.50;98.20;;;;;;5030689;28;20470;-76
2023/04/07 00:28:06;;;;;;;1.60;1.33;;;8.50;98.20;;;;;;5023165;28;20864;-75
2023/04/07 00:30:34;;;;;;;1.60;1.30;;;8.50;98.20;;;;;;5028486;28;20462;-75
2023/04/07 00:33:01;;;;;;;1.50;1.20;;;8.60;98.20;;;;;;5019520;28;20547;-76
2023/04/07 00:35:28;;;;;;;1.50;1.20;;;8.60;98.20;;;;;;5028978;28;20482;-75
2023/04/07 00:37:54;;;;;;;1.50;1.20;;;8.60;98.20;;;;;;5024239;28;20493;-76
2023/04/07 00:40:21;;;;;;;1.50;1.20;;;8.60;98.20;;;;;;5025809;28;20501;-76
2023/04/07 00:42:48;;;;;;;1.50;1.27;;;8.60;98.20;;;;;;5029262;28;20493;-75
2023/04/07 00:45:15;;;;;;;1.50;1.17;;;8.60;98.20;;;;;;5031184;28;20497;-77
2023/04/07 00:47:43;;;;;;;1.50;1.10;;;8.60;98.20;;;;;;5024198;28;20501;-76
2023/04/07 00:50:10;;;;;;;1.50;1.20;;;8.60;98.20;;;;;;5027389;28;20774;-76
2023/04/07 00:52:37;;;;;;;1.50;1.30;;;8.60;98.20;;;;;;5022159;28;20479;-76
2023/04/07 00:55:05;;;;;;;1.50;1.20;;;8.60;98.20;;;;;;5025584;28;20491;-77
2023/04/07 00:57:32;;;;;;;1.50;1.10;;;8.60;98.20;;;;;;5020282;28;20486;-77
2023/04/07 00:59:59;;;;;;;1.50;1.20;;;8.70;98.20;;;;;;5022738;28;20808;-78
2023/04/07 01:02:33;;;;;;;1.53;1.20;;;8.70;98.20;;;;;;5027041;28;20887;-77
2023/04/07 01:05:09;;;;;;;1.50;1.20;;;8.80;98.20;;;;;;5027781;28;20458;-77
2023/04/07 01:07:42;;;;;;;1.50;1.20;;;8.70;98.20;;;;;;5033602;28;20482;-77
2023/04/07 01:10:15;;;;;;;1.50;1.20;;;8.80;98.20;;;;;;5029464;28;20540;-78
2023/04/07 01:13:00;;;;;;;1.50;1.23;;;8.80;98.20;;;;;;5028160;28;21482;-78
2023/04/07 01:15:29;;;;;;;1.50;1.10;;;8.80;98.20;;;;;;5027932;28;20605;-77
2023/04/07 01:18:01;;;;;;;1.50;1.10;;;8.80;98.20;;;;;;5021829;28;20866;-78
2023/04/07 01:20:34;;;;;;;1.60;1.30;;;8.80;98.20;;;;;;5023681;28;20474;-77
2023/04/07 01:23:06;;;;;;;1.57;1.20;;;8.80;98.20;;;;;;5018364;28;20490;-78
2023/04/07 01:25:53;;;;;;;3.00;2.80;;;8.80;98.20;;;;;;5028626;28;20451;-77
2023/04/07 01:28:43;;;;;;;9.43;4.50;;;8.90;98.20;;;;;;5015193;28;20497;-78
2023/04/07 01:31:16;;;;;;;1.50;1.10;;;8.90;98.20;;;;;;5015172;28;20483;-78
2023/04/07 01:33:46;;;;;;;1.50;1.10;;;9.00;98.20;;;;;;5028101;28;20483;-78
2023/04/07 01:36:14;;;;;;;1.50;1.10;;;9.00;98.20;;;;;;5022594;28;20558;-78
2023/04/07 01:38:42;;;;;;;1.50;1.10;;;9.00;98.20;;;;;;5036860;28;20730;-79
2023/04/07 01:41:10;;;;;;;1.50;1.10;;;9.00;98.20;;;;;;5021698;28;21055;-79
2023/04/07 01:43:39;;;;;;;1.60;1.30;;;9.00;98.20;;;;;;5035608;28;20463;-78
2023/04/07 01:46:06;;;;;;;1.50;1.10;;;9.00;98.20;;;;;;5023299;28;20661;-78
2023/04/07 01:48:35;;;;;;;1.50;1.20;;;9.00;98.20;;;;;;5029093;28;20579;-79
2023/04/07 01:51:04;;;;;;;1.50;1.20;;;9.10;98.20;;;;;;5022255;28;20459;-80
2023/04/07 01:53:32;;;;;;;1.50;1.10;;;9.10;98.20;;;;;;5029349;28;20837;-80
2023/04/07 01:55:58;;;;;;;1.50;1.23;;;9.10;98.20;;;;;;5022158;28;20478;-80
2023/04/07 01:58:26;;;;;;;1.53;1.20;;;9.10;98.20;;;;;;5030592;28;20484;-79
2023/04/07 02:00:52;;;;;;;1.57;1.30;;;9.10;98.20;;;;;;5018104;28;20460;-78
2023/04/07 02:03:23;;;;;;;1.50;1.30;;;9.10;98.20;;;;;;5031604;28;20468;-77
2023/04/07 02:05:55;;;;;;;1.50;1.20;;;9.10;98.20;;;;;;5021701;28;20454;-78
2023/04/07 02:08:25;;;;;;;1.50;1.13;;;9.10;98.20;;;;;;5029934;28;20828;-77
2023/04/07 02:10:55;;;;;;;1.50;1.10;;;9.20;98.20;;;;;;5018183;28;20532;-77
2023/04/07 02:13:23;;;;;;;1.50;1.20;;;9.20;98.20;;;;;;5038153;28;20470;-77
2023/04/07 02:15:54;;;;;;;1.50;1.20;;;9.20;98.20;;;;;;5019920;28;20483;-79
2023/04/07 02:18:23;;;;;;;1.50;1.20;;;9.20;98.20;;;;;;5027943;28;20492;-79
2023/04/07 02:20:53;;;;;;;1.50;1.20;;;9.20;98.20;;;;;;5016928;28;20463;-78
2023/04/07 02:23:20;;;;;;;1.53;1.30;;;9.20;98.20;;;;;;5025123;28;20460;-78
2023/04/07 02:25:47;;;;;;;1.50;1.10;;;9.20;98.20;;;;;;5021892;28;20973;-77
2023/04/07 02:28:14;;;;;;;1.50;1.10;;;9.20;98.20;;;;;;5026512;28;20468;-78
2023/04/07 02:30:41;;;;;;;1.53;1.23;;;9.20;98.20;;;;;;5028092;28;20467;-78
2023/04/07 02:33:08;;;;;;;1.50;1.10;;;9.30;98.20;;;;;;5021226;28;20860;-78
2023/04/07 02:35:34;;;;;;;1.50;1.10;;;9.30;98.20;;;;;;5026917;28;21041;-77
2023/04/07 02:38:02;;;;;;;1.50;1.10;;;9.30;98.20;;;;;;5022493;28;21021;-77
2023/04/07 02:40:29;;;;;;;1.57;1.30;;;9.20;98.20;;;;;;5026200;28;20965;-76
2023/04/07 02:42:56;;;;;;;1.50;1.10;;;9.20;98.20;;;;;;5031629;28;20793;-79
2023/04/07 02:45:23;;;;;;;1.50;1.10;;;9.30;98.20;;;;;;5028545;28;20459;-79
2023/04/07 02:47:50;;;;;;;1.50;1.20;;;9.30;98.20;;;;;;5024042;28;20490;-76
2023/04/07 02:50:17;;;;;;;1.50;1.20;;;9.30;98.20;;;;;;5025177;28;20494;-80
2023/04/07 02:52:44;;;;;;;1.57;1.23;;;9.30;98.20;;;;;;5024786;28;20570;-78
2023/04/07 02:55:12;;;;;;;1.53;1.10;;;9.30;98.20;;;;;;5024994;28;20491;-77
2023/04/07 02:57:39;;;;;;;1.50;1.20;;;9.30;98.20;;;;;;5019913;28;20505;-78
2023/04/07 03:00:07;;;;;;;1.50;1.20;;;9.30;98.20;;;;;;5023654;28;20490;-77
2023/04/07 03:02:33;;;;;;;1.50;1.20;;;9.30;98.20;;;;;;5022648;28;20568;-78
2023/04/07 03:05:00;;;;;;;1.50;1.10;;;9.30;98.20;;;;;;5023640;28;20462;-77
2023/04/07 03:07:28;;;;;;;1.50;1.10;;;9.30;98.20;;;;;;5021342;28;20475;-77
2023/04/07 03:09:54;;;;;;;1.53;1.17;;;9.20;98.20;;;;;;5028990;28;20554;-78
2023/04/07 03:12:23;;;;;;;1.50;1.10;;;9.30;98.20;;;;;;5024971;28;20506;-77
2023/04/07 03:14:50;;;;;;;1.50;1.20;;;9.30;98.20;;;;;;5029962;28;21110;-77
2023/04/07 03:17:16;;;;;;;1.50;1.10;;;9.30;98.20;;;;;;5021509;28;20490;-78
2023/04/07 03:19:43;;;;;;;1.60;1.30;;;9.30;98.20;;;;;;5024935;28;20491;-77
2023/04/07 03:22:10;;;;;;;1.50;1.10;;;9.30;98.20;;;;;;5027590;28;20478;-75
2023/04/07 03:24:38;;;;;;;1.50;1.10;;;9.30;98.20;;;;;;5025683;28;20461;-77
2023/04/07 03:27:05;;;;;;;1.53;1.30;;;9.30;98.20;;;;;;5022568;28;20558;-76
2023/04/07 03:29:33;;;;;;;1.50;1.20;;;9.30;98.20;;;;;;5022115;28;20513;-78
2023/04/07 03:32:00;;;;;;;1.50;1.20;;;9.30;98.20;;;;;;5024354;28;20494;-74
2023/04/07 03:34:26;;;;;;;1.50;1.10;;;9.30;98.20;;;;;;5028249;28;20565;-77
2023/04/07 03:36:53;;;;;;;1.50;1.20;;;9.20;98.20;;;;;;5020355;28;20857;-75
2023/04/07 03:39:20;;;;;;;1.50;1.20;;;9.20;98.20;;;;;;5023333;28;20830;-76
2023/04/07 03:41:47;;;;;;;1.50;1.20;;;9.20;98.20;;;;;;5014434;28;21010;-78
2023/04/07 03:44:13;;;;;;;1.53;1.20;;;9.20;98.20;;;;;;5027627;28;20459;-76
2023/04/07 03:46:41;;;;;;;1.50;1.20;;;9.20;98.20;;;;;;5020608;28;20483;-77
2023/04/07 03:49:08;;;;;;;1.50;1.10;;;9.20;98.20;;;;;;5023649;28;20996;-79
2023/04/07 03:51:35;;;;;;;1.50;1.20;;;9.20;98.20;;;;;;5017043;28;20471;-78
2023/04/07 03:54:02;;;;;;;1.50;1.17;;;9.20;98.20;;;;;;5022213;28;20468;-77
2023/04/07 03:56:29;;;;;;;1.50;1.20;;;9.20;98.20;;;;;;5008828;28;20511;-77
2023/04/07 03:58:56;;;;;;;1.53;1.20;;;9.20;98.20;;;;;;4982971;28;20616;-78
2023/04/07 04:01:22;;;;;;;1.50;1.10;;;9.20;98.20;;;;;;4984856;28;20830;-78
2023/04/07 04:03:51;;;;;;;1.50;1.10;;;9.20;98.20;;;;;;4999158;28;20460;-76
2023/04/07 04:06:17;;;;;;;4.80;2.70;;;9.20;98.20;;;;;;4983572;28;20555;-77
2023/04/07 04:08:44;;;;;;;1.50;1.20;;;9.20;98.20;;;;;;4997634;28;21206;-76
2023/04/07 04:11:11;;;;;;;1.50;1.10;;;9.20;98.20;;;;;;4984791;28;20484;-76
2023/04/07 04:13:38;;;;;;;1.57;1.27;;;9.20;98.20;;;;;;4995936;28;20457;-76
2023/04/07 04:16:05;;;;;;;1.50;1.10;;;9.20;98.20;;;;;;4978662;28;20484;-76
2023/04/07 04:18:32;;;;;;;1.50;1.10;;;9.20;98.20;;;;;;4990421;28;20503;-76
2023/04/07 04:21:00;;;;;;;1.50;1.20;;;9.20;98.20;;;;;;4980455;28;20469;-75
2023/04/07 04:23:27;;;;;;;1.50;1.13;;;9.20;98.20;;;;;;4989890;28;20474;-77
2023/04/07 04:25:54;;;;;;;1.50;1.30;;;9.10;98.20;;;;;;4981996;28;20470;-77
2023/04/07 04:28:20;;;;;;;1.50;1.10;;;9.10;98.20;;;;;;4998226;28;20460;-75
2023/04/07 04:30:47;;;;;;;1.83;1.73;;;9.10;98.20;;;;;;5006767;28;20502;-76
2023/04/07 04:33:14;;;;;;;1.50;1.20;;;9.10;98.20;;;;;;5035048;28;20455;-75
2023/04/07 04:35:41;;;;;;;1.50;1.10;;;9.10;98.20;;;;;;5024846;28;20483;-77
2023/04/07 04:38:10;;;;;;;1.93;1.70;;;9.10;98.20;;;;;;5022120;28;20563;-74
2023/04/07 04:40:37;;;;;;;1.50;1.20;;;9.10;98.20;;;;;;5024098;28;20470;-76
2023/04/07 04:43:05;;;;;;;1.50;1.20;;;9.10;98.20;;;;;;5015982;28;20479;-76
2023/04/07 04:45:32;;;;;;;1.53;1.20;;;9.10;98.20;;;;;;5025581;28;20463;-77
2023/04/07 04:47:59;;;;;;;1.50;1.10;;;9.10;98.20;;;;;;5022828;28;20490;-77
2023/04/07 04:50:26;;;;;;;1.50;1.20;;;9.10;98.20;;;;;;5025221;28;20475;-75
2023/04/07 04:52:53;;;;;;;1.50;1.10;;;9.10;98.20;;;;;;5019885;28;20863;-77
2023/04/07 04:55:21;;;;;;;1.50;1.10;;;9.00;98.20;;;;;;5024484;28;20570;-75
2023/04/07 04:57:48;;;;;;;1.50;1.20;;;9.00;98.20;;;;;;5029629;28;20490;-77
2023/04/07 05:00:15;;;;;;;1.50;1.10;;;9.00;98.20;;;;;;5029379;28;20479;-76
2023/04/07 05:02:42;;;;;;;1.50;1.10;;;9.00;98.20;;;;;;5029920;28;21153;-76
2023/04/07 05:05:09;;;;;;;1.50;1.10;;;9.00;98.20;;;;;;5029690;28;21154;-77
2023/04/07 05:07:39;;;;;;;1.50;1.20;;;9.00;98.20;;;;;;5031215;28;20489;-75
2023/04/07 05:10:07;;;;;;;1.57;1.23;;;9.00;98.20;;;;;;5029622;28;21026;-77
2023/04/07 05:12:36;;;;;;;1.50;1.20;;;9.00;98.20;;;;;;5028969;28;20486;-77
2023/04/07 05:15:03;;;;;;;1.53;1.30;;;9.00;98.20;;;;;;5029080;28;20867;-76
2023/04/07 05:17:29;;;;;;;1.50;1.10;;;9.00;98.20;;;;;;5024308;28;20494;-75
2023/04/07 05:19:56;;;;;;;1.50;1.20;;;9.00;98.20;;;;;;5029457;28;21440;-77
2023/04/07 05:22:23;;;;;;;1.50;1.10;;;9.00;98.20;;;;;;5023728;28;20477;-75
2023/04/07 05:24:50;;;;;;;1.50;1.10;;;9.00;98.20;;;;;;5028978;28;20467;-77
2023/04/07 05:27:17;;;;;;;1.50;1.13;;;9.00;98.20;;;;;;5023637;28;20483;-77
2023/04/07 05:29:45;;;;;;;1.50;1.10;;;9.00;98.20;;;;;;5031465;28;20892;-77
2023/04/07 05:32:12;;;;;;;1.50;1.20;;;9.00;98.20;;;;;;5025652;28;20549;-77
2023/04/07 05:34:40;;;;;;;1.50;1.15;;;9.00;98.20;;;;;;5029358;28;20842;-79
2023/04/07 05:37:06;;;;;;;1.50;1.17;;;9.00;98.20;;;;;;5022755;28;20481;-76
2023/04/07 05:39:33;;;;;;;1.50;1.30;;;9.00;98.20;;;;;;5030331;28;20482;-74
2023/04/07 05:42:00;;;;;;;1.53;1.30;;;9.00;98.20;;;;;;5022111;28;20482;-77
2023/04/07 05:44:27;;;;;;;1.70;1.53;;;9.00;98.20;;;;;;5029211;28;20459;-79
2023/04/07 05:46:55;;;;;;;1.50;1.10;;;9.00;98.20;;;;;;5023088;28;21027;-76
2023/04/07 05:49:22;;;;;;;1.50;1.20;;;9.00;98.20;;;;;;5033504;28;20475;-76
2023/04/07 05:51:48;;;;;;;1.50;1.30;;;8.90;98.20;;;;;;5016600;28;20483;-76
2023/04/07 05:54:15;;;;;;;1.50;1.10;;;9.00;98.20;;;;;;5028308;28;20455;-75
2023/04/07 05:56:42;;;;;;;1.50;1.20;;;8.90;98.20;;;;;;5021556;28;20478;-75
2023/04/07 05:59:09;;;;;;;1.50;1.20;;;8.90;98.20;;;;;;5031756;28;20892;-76
2023/04/07 06:01:35;;;;;;;1.50;1.10;;;8.90;98.20;;;;;;5023118;28;20489;-76
2023/04/07 06:04:04;;;;;;;1.50;1.10;;;8.90;98.20;;;;;;5036253;28;20463;-77
2023/04/07 06:06:30;;;;;;;1.50;1.10;;;8.90;98.20;;;;;;5023258;28;20508;-77
2023/04/07 06:08:57;;;;;;;1.50;1.20;;;8.90;98.20;;;;;;5034967;28;20485;-75
2023/04/07 06:11:24;;;;;;;1.50;1.20;;;8.90;98.20;;;;;;5015933;28;20484;-75
2023/04/07 06:13:51;;;;;;;1.57;1.30;;;8.90;98.20;;;;;;5033854;28;20545;-75
2023/04/07 06:16:18;;;;;;;1.50;1.10;;;8.90;98.20;;;;;;5019444;28;20482;-75
2023/04/07 06:18:45;;;;;;;1.50;1.10;;;8.90;98.20;;;;;;5030620;28;20490;-75
2023/04/07 06:21:13;;;;;;;1.50;1.17;;;8.90;98.20;;;;;;5017778;28;20482;-76
2023/04/07 06:23:40;;;;;;;1.50;1.20;;;8.90;98.20;;;;;;5029097;28;20529;-75
2023/04/07 06:26:10;;;;;;;1.50;1.20;;;8.90;98.20;;;;;;5020855;28;20494;-75
2023/04/07 06:28:37;;;;;;;1.50;1.10;;;8.90;98.20;;;;;;5038657;28;20573;-75
2023/04/07 06:31:04;;;;;;;1.50;1.10;;;8.90;98.20;;;;;;5018441;28;20459;-75
2023/04/07 06:33:31;;;;;;;1.50;1.00;;;8.90;98.20;;;;;;5029565;28;20459;-75
2023/04/07 06:35:57;;;;;;;1.50;1.20;;;8.90;98.20;;;;;;5018556;28;20487;-75
2023/04/07 06:38:26;;;;;;;1.50;1.20;;;8.90;98.20;;;;;;5033278;28;20529;-76
2023/04/07 06:40:52;;;;;;;1.50;1.10;;;8.90;98.20;;;;;;5017509;28;20949;-75
2023/04/07 06:43:19;;;;;;;1.50;1.10;;;8.90;98.20;;;;;;5031035;28;20460;-75
2023/04/07 06:45:46;;;;;;;1.50;1.10;;;8.90;98.20;;;;;;5020843;28;20455;-76
2023/04/07 06:48:12;;;;;;;1.50;1.10;;;9.00;98.20;;;;;;5037883;28;20467;-75
2023/04/07 06:50:39;;;;;;;1.50;1.10;;;9.00;98.20;;;;;;5026316;28;20459;-76
2023/04/07 06:53:06;;;;;;;1.50;1.10;;;9.00;98.20;;;;;;5023263;28;20479;-75
2023/04/07 06:55:34;;;;;;;1.50;1.20;;;9.00;98.20;;;;;;5024025;28;20499;-76
2023/04/07 06:58:01;;;;;;;1.50;1.23;;;9.00;98.20;;;;;;5027387;28;20478;-75
2023/04/07 07:00:29;;;;;;;1.50;1.10;;;9.00;98.20;;;;;;5024407;28;20861;-74
2023/04/07 07:02:56;;;;;;;1.50;1.10;;;9.00;98.20;;;;;;5029709;28;20486;-76
2023/04/07 07:05:23;;;;;;;1.50;1.10;;;9.10;98.20;;;;;;5027523;28;20633;-76
2023/04/07 07:07:50;;;;;;;1.50;1.20;;;9.10;98.20;;;;;;5028775;28;20852;-75
2023/04/07 07:10:19;;;;;;;1.50;1.20;;;9.10;98.20;;;;;;5025661;28;20801;-75
2023/04/07 07:12:47;;;;;;;1.50;1.20;;;9.20;98.20;;;;;;5025441;28;20852;-76
2023/04/07 07:15:14;;;;;;;1.50;1.10;;;9.30;98.20;;;;;;5023545;28;20800;-75
2023/04/07 07:17:40;;;;;;;1.50;1.10;;;9.30;98.20;;;;;;5020787;28;20495;-77
2023/04/07 07:20:08;;;;;;;1.50;1.20;;;9.40;98.20;;;;;;5025004;28;20490;-76
2023/04/07 07:22:35;;;;;;;1.50;1.10;;;9.40;98.20;;;;;;5022857;28;20491;-76
2023/04/07 07:25:03;;;;;;;1.50;1.20;;;9.40;98.20;;;;;;5024702;28;20513;-73
2023/04/07 07:27:29;;;;;;;3.40;3.20;;;9.40;98.20;;;;;;5021116;28;20548;-75
2023/04/07 07:29:58;;;;;;;1.50;1.20;;;9.50;98.20;;;;;;5026182;28;20486;-78
2023/04/07 07:32:24;;;;;;;1.50;1.20;;;9.50;98.20;;;;;;5027665;28;20478;-79
2023/04/07 07:34:51;;;;;;;1.50;1.20;;;9.50;98.20;;;;;;5026156;28;20474;-77
2023/04/07 07:37:18;;;;;;;1.53;1.10;;;9.60;98.20;;;;;;5023271;28;20550;-76
2023/04/07 07:39:45;;;;;;;1.50;1.20;;;9.60;98.20;;;;;;5027691;28;20570;-78
2023/04/07 07:42:12;;;;;;;1.57;1.20;;;9.60;98.20;;;;;;5020755;28;20482;-78
2023/04/07 07:44:38;;;;;;;1.50;1.10;;;9.70;98.20;;;;;;5026582;28;20746;-78
2023/04/07 07:47:07;;;;;;;1.50;1.10;;;9.70;98.20;;;;;;5021279;28;20509;-78
2023/04/07 07:49:34;;;;;;;1.57;1.20;;;9.70;98.20;;;;;;5024908;28;20483;-78
2023/04/07 07:52:01;;;;;;;1.50;1.10;;;9.70;98.20;;;;;;5021707;28;20483;-78
2023/04/07 07:54:28;;;;;;;1.50;1.10;;;9.70;98.20;;;;;;5025572;28;20944;-78
2023/04/07 07:56:54;;;;;;;1.50;1.10;;;9.80;98.20;;;;;;5020413;28;20486;-78
2023/04/07 07:59:21;;;;;;;1.50;1.10;;;9.80;98.20;;;;;;5027884;28;20977;-79
2023/04/07 08:01:48;;;;;;;1.50;1.20;;;9.90;98.20;;;;;;5021189;28;20482;-78
2023/04/07 08:04:16;;;;;;;1.50;1.00;;;9.90;98.20;;;;;;5031100;28;20463;-78
2023/04/07 08:06:43;;;;;;;1.50;1.20;;;9.90;98.20;;;;;;5018713;28;21027;-77
2023/04/07 08:09:10;;;;;;;1.50;1.23;;;10.00;98.20;;;;;;5026609;28;20491;-78
2023/04/07 08:11:36;;;;;;;1.53;1.10;;;10.00;98.20;;;;;;5015021;28;20474;-78
2023/04/07 08:14:03;;;;;;;1.57;1.20;;;10.10;98.20;;;;;;5029350;28;20492;-77
2023/04/07 08:16:30;;;;;;;1.60;1.30;;;10.10;98.20;;;;;;5019721;28;20982;-79
2023/04/07 08:18:57;;;;;;;1.53;1.20;;;10.10;98.20;;;;;;5033374;28;21079;-79
2023/04/07 08:21:26;;;;;;;1.50;1.10;;;10.10;98.20;;;;;;5016357;28;20483;-80
2023/04/07 08:23:53;;;;;;;1.50;1.20;;;10.20;98.20;;;;;;5034739;28;20459;-78
2023/04/07 08:26:20;;;;;;;1.50;1.30;;;10.20;98.20;;;;;;5020424;28;20477;-81
2023/04/07 08:28:50;;;;;;;1.57;1.13;;;10.30;98.20;;;;;;5032670;28;20490;-78
2023/04/07 08:31:17;;;;;;;1.57;1.20;;;10.30;98.20;;;;;;5021276;28;20486;-79
2023/04/07 08:33:43;;;;;;;1.50;1.10;;;10.30;98.20;;;;;;5037666;28;20470;-80
2023/04/07 08:36:10;;;;;;;1.53;1.10;;;10.40;98.20;;;;;;5020702;28;20485;-79
2023/04/07 08:38:39;;;;;;;1.53;1.10;;;10.50;98.20;;;;;;5037553;28;20928;-79
2023/04/07 08:41:12;;;;;;;1.50;1.20;;;10.50;98.20;;;;;;5022687;28;20549;-79
2023/04/07 08:43:40;;;;;;;1.53;1.27;;;10.50;98.20;;;;;;5038928;28;20566;-79
2023/04/07 08:46:10;;;;;;;1.50;1.10;;;10.60;98.20;;;;;;5021183;28;20890;-79
2023/04/07 08:48:38;;;;;;;1.50;1.10;;;10.60;98.20;;;;;;5035260;28;21064;-78
2023/04/07 08:51:07;;;;;;;1.50;1.10;;;10.60;98.20;;;;;;5022241;28;20489;-79
2023/04/07 08:53:40;;;;;;;1.50;1.10;;;10.70;98.20;;;;;;5037236;28;20489;-78
2023/04/07 08:56:12;;;;;;;1.60;1.10;;;10.70;98.20;;;;;;5024095;28;20483;-79
2023/04/07 08:58:44;;;;;;;1.50;1.07;;;10.70;98.20;;;;;;5048960;28;20565;-80
2023/04/07 09:01:12;;;;;;;1.57;1.17;;;10.70;98.20;;;;;;5024661;28;20535;-79
2023/04/07 09:03:39;;;;;;;1.53;1.10;;;10.70;98.20;;;;;;5040477;28;20458;-80
2023/04/07 09:06:06;;;;;;;1.50;1.00;;;10.70;98.20;;;;;;5024174;28;20487;-78
2023/04/07 09:08:33;;;;;;;1.50;1.17;;;10.70;98.20;;;;;;5038407;28;20498;-79
2023/04/07 09:11:01;;;;;;;1.50;1.10;;;10.70;98.20;;;;;;5022145;28;20463;-79
2023/04/07 09:13:28;;;;;;;1.50;1.10;;;10.70;98.20;;;;;;5040253;28;20455;-79
2023/04/07 09:15:55;;;;;;;1.50;1.10;;;10.80;98.20;;;;;;5020473;28;20469;-79
2023/04/07 09:18:22;;;;;;;1.50;1.00;;;10.80;98.20;;;;;;5037663;28;20475;-77
2023/04/07 09:20:56;;;;;;;1.53;1.10;;;11.00;98.20;;;;;;5016878;28;20558;-78
2023/04/07 09:23:31;;;;;;;1.50;1.07;;;11.00;98.20;;;;;;5040707;28;20551;-77
2023/04/07 09:26:00;;;;;;;1.50;1.10;;;11.00;98.20;;;;;;5018384;28;20937;-77
2023/04/07 09:28:40;;;;;;;1.50;1.00;;;11.10;98.20;;;;;;5033852;28;20528;-77
2023/04/07 09:31:07;;;;;;;1.50;1.10;;;11.10;98.20;;;;;;5017884;28;21235;-77
2023/04/07 09:33:35;;;;;;;1.57;1.10;;;11.00;98.20;;;;;;5032671;28;20470;-76
2023/04/07 09:36:02;;;;;;;1.50;1.10;;;11.10;98.20;;;;;;5018808;28;20523;-77
2023/04/07 09:38:33;;;;;;;1.50;1.10;;;11.10;98.20;;;;;;5037633;28;20571;-78
2023/04/07 09:41:07;;;;;;;1.50;1.20;;;11.00;98.20;;;;;;5018796;28;20471;-79
2023/04/07 09:43:39;;;;;;;1.60;1.10;;;11.00;98.20;;;;;;5037010;28;20463;-78
2023/04/07 09:46:11;;;;;;;1.57;1.10;;;11.00;98.20;;;;;;5020349;28;20483;-79
2023/04/07 09:48:38;;;;;;;1.50;1.00;;;10.90;98.20;;;;;;5038017;28;20494;-79
2023/04/07 09:51:07;;;;;;;1.50;1.00;;;10.90;98.20;;;;;;5019045;28;20475;-80
2023/04/07 09:53:46;;;;;;;1.50;1.10;;;10.80;98.20;;;;;;5034536;28;20540;-80
2023/04/07 09:56:15;;;;;;;1.50;1.10;;;10.70;98.20;;;;;;5021978;28;20701;-79
2023/04/07 09:58:45;;;;;;;1.60;1.20;;;10.70;98.20;;;;;;5033091;28;20475;-77
2023/04/07 10:01:13;;;;;;;1.50;1.00;;;10.70;98.20;;;;;;5016115;28;20486;-79
2023/04/07 10:03:40;;;;;;;1.50;1.10;;;10.70;98.20;;;;;;5032411;28;20737;-79
2023/04/07 10:06:08;;;;;;;1.50;1.10;;;10.70;98.20;;;;;;5020248;28;20486;-80
2023/04/07 10:08:36;;;;;;;1.50;1.10;;;10.70;98.20;;;;;;5038826;28;20479;-78
2023/04/07 10:11:05;;;;;;;1.50;1.20;;;10.70;98.20;;;;;;5017226;28;20498;-77
2023/04/07 10:13:34;;;;;;;1.50;1.10;;;10.70;98.20;;;;;;5033058;28;20542;-78
2023/04/07 10:16:04;;;;;;;1.50;1.00;;;10.70;98.20;;;;;;5016054;28;20467;-77
2023/04/07 10:18:32;;;;;;;3.17;2.50;;;10.70;98.20;;;;;;5033040;28;20487;-77
2023/04/07 10:21:02;;;;;;;1.50;1.10;;;10.80;98.20;;;;;;5012313;28;20467;-77
2023/04/07 10:23:53;;;;;;;1.50;1.07;;;10.80;98.20;;;;;;5034779;28;20847;-77
2023/04/07 10:26:24;;;;;;;1.50;1.10;;;10.90;98.20;;;;;;5018809;28;20530;-78
2023/04/07 10:28:55;;;;;;;1.50;1.10;;;11.00;98.20;;;;;;5033996;28;20876;-78
2023/04/07 10:31:24;;;;;;;1.50;1.10;;;11.00;98.20;;;;;;5017699;28;20513;-78
2023/04/07 10:33:53;;;;;;;2.43;2.23;;;11.00;98.20;;;;;;5028497;28;20882;-78
2023/04/07 10:36:20;;;;;;;1.50;1.10;;;11.10;98.20;;;;;;5014654;28;20657;-78
2023/04/07 10:39:22;;;;;;;1.50;1.10;;;11.10;98.20;;;;;;5032050;28;20537;-79
2023/04/07 10:41:50;;;;;;;1.50;1.10;;;11.20;98.20;;;;;;5022121;28;20478;-79
2023/04/07 10:44:45;;;;;;;1.60;1.10;;;11.20;98.20;;;;;;5030813;28;20467;-78
2023/04/07 10:47:13;;;;;;;1.70;1.40;;;11.20;98.20;;;;;;5012687;28;20906;-78
2023/04/07 10:50:17;;;;;;;1.57;1.20;;;11.20;98.20;;;;;;5029611;28;20483;-81
2023/04/07 10:52:45;;;;;;;1.50;1.00;;;11.20;98.20;;;;;;5027007;28;20490;-80
2023/04/07 10:55:36;;;;;;;1.50;1.10;;;11.20;98.20;;;;;;5027358;28;20459;-80
2023/04/07 10:58:17;;;;;;;1.50;1.07;;;11.20;98.20;;;;;;5026701;28;21009;-80
2023/04/07 11:01:21;;;;;;;1.50;1.00;;;11.20;98.20;;;;;;5025996;28;20880;-80
2023/04/07 11:04:00;;;;;;;1.50;1.03;;;11.30;98.20;;;;;;5030895;28;20483;-79
2023/04/07 11:06:27;;;;;;;1.60;1.10;;;11.40;98.20;;;;;;5017463;28;20915;-80
2023/04/07 11:08:55;;;;;;;1.50;1.00;;;11.50;98.20;;;;;;5029698;28;20522;-77
2023/04/07 11:11:37;;;;;;;1.50;1.10;;;11.50;98.20;;;;;;5015635;28;20987;-77
2023/04/07 11:14:06;;;;;;;1.50;1.00;;;11.40;98.20;;;;;;5027417;28;20498;-77
2023/04/07 11:16:44;;;;;;;1.50;1.00;;;11.40;98.20;;;;;;5015526;28;21008;-79
2023/04/07 11:19:12;;;;;;;1.50;1.00;;;11.30;98.20;;;;;;5033012;28;20487;-78
2023/04/07 11:21:39;;;;;;;1.53;1.10;;;11.30;98.20;;;;;;5018935;28;21194;-79
2023/04/07 11:24:06;;;;;;;1.50;1.10;;;11.40;98.20;;;;;;5031154;28;20494;-77
2023/04/07 11:26:38;;;;;;;1.50;1.00;;;11.40;98.20;;;;;;5019371;28;20478;-79
2023/04/07 11:29:06;;;;;;;1.50;1.10;;;11.30;98.20;;;;;;5030882;28;20529;-78
2023/04/07 11:31:34;;;;;;;1.50;1.10;;;11.30;98.20;;;;;;5020418;28;20915;-78
2023/04/07 11:34:03;;;;;;;1.50;1.10;;;11.30;98.20;;;;;;5030574;28;20470;-78
2023/04/07 11:36:35;;;;;;;1.50;1.10;;;11.40;98.20;;;;;;5021086;28;20916;-78
2023/04/07 11:39:02;;;;;;;1.50;1.10;;;11.60;98.20;;;;;;5030210;28;20495;-78
2023/04/07 11:41:31;;;;;;;1.50;1.00;;;11.80;98.20;;;;;;5019156;28;20481;-77
2023/04/07 11:44:08;;;;;;;2.83;2.30;;;12.00;98.20;;;;;;5026930;28;20521;-78
2023/04/07 11:46:36;;;;;;;1.53;1.10;;;12.20;98.20;;;;;;5015907;28;20505;-78
2023/04/07 11:49:12;;;;;;;1.50;1.10;;;12.30;98.20;;;;;;5029738;28;21135;-78
2023/04/07 11:51:39;;;;;;;1.50;1.00;;;12.40;98.20;;;;;;5020931;28;20557;-79
2023/04/07 11:54:06;;;;;;;1.50;1.00;;;12.30;98.20;;;;;;5039198;28;20465;-78
2023/04/07 11:56:43;;;;;;;1.50;1.00;;;12.20;98.20;;;;;;5020072;28;20475;-78
2023/04/07 11:59:21;;;;;;;1.50;1.00;;;12.10;98.20;;;;;;5025785;28;20481;-78
2023/04/07 12:01:49;;;;;;;1.50;1.10;;;12.00;98.20;;;;;;5019859;28;20906;-77
2023/04/07 12:04:17;;;;;;;1.50;1.00;;;11.90;98.20;;;;;;5028880;28;20491;-78
2023/04/07 12:06:46;;;;;;;1.50;1.10;;;11.90;98.20;;;;;;5022133;28;20495;-78
2023/04/07 12:09:28;;;;;;;1.50;1.00;;;11.90;98.20;;;;;;5033903;28;20487;-79
2023/04/07 12:11:55;;;;;;;1.50;1.00;;;12.00;98.20;;;;;;5019195;28;20478;-78
2023/04/07 12:14:22;;;;;;;1.50;1.10;;;12.00;98.20;;;;;;5026690;28;20463;-76
2023/04/07 12:16:49;;;;;;;1.50;1.10;;;12.00;98.20;;;;;;5016884;28;20586;-78
2023/04/07 12:19:18;;;;;;;1.50;1.00;;;12.10;98.20;;;;;;5026718;28;20487;-79
2023/04/07 12:21:44;;;;;;;1.50;1.00;;;12.10;98.20;;;;;;5018686;28;20497;-76
2023/04/07 12:24:11;;;;;;;1.50;1.00;;;12.20;98.20;;;;;;5031333;28;20550;-78
2023/04/07 12:26:38;;;;;;;1.50;1.00;;;12.00;98.20;;;;;;5018047;28;20544;-78
2023/04/07 12:29:05;;;;;;;1.50;1.00;;;12.00;98.20;;;;;;5028831;28;20634;-78
2023/04/07 12:31:32;;;;;;;1.50;1.10;;;12.00;98.20;;;;;;5017092;28;20474;-78
2023/04/07 12:33:59;;;;;;;1.50;1.00;;;12.00;98.20;;;;;;5029829;28;20554;-77
2023/04/07 12:36:28;;;;;;;1.50;1.00;;;12.10;98.20;;;;;;5014980;28;20497;-77
2023/04/07 12:38:55;;;;;;;1.50;1.00;;;12.10;98.20;;;;;;5027744;28;20864;-77
2023/04/07 12:41:22;;;;;;;1.50;1.00;;;12.20;98.20;;;;;;5013452;28;20940;-78
2023/04/07 12:43:49;;;;;;;1.50;1.00;;;12.20;98.20;;;;;;5024614;28;20459;-78
2023/04/07 12:46:16;;;;;;;1.50;1.00;;;12.30;98.20;;;;;;5011088;28;20483;-77
2023/04/07 12:48:44;;;;;;;1.50;1.00;;;12.50;98.20;;;;;;5029395;28;20545;-79
2023/04/07 12:51:11;;;;;;;1.50;1.00;;;12.60;98.20;;;;;;5014041;28;20507;-78
2023/04/07 12:53:39;;;;;;;1.57;1.20;;;12.70;98.20;;;;;;5031904;28;20467;-78
2023/04/07 12:56:06;;;;;;;1.50;1.00;;;12.70;98.20;;;;;;5014613;28;20483;-77
2023/04/07 12:58:33;;;;;;;1.50;1.00;;;12.70;98.20;;;;;;5034558;28;20557;-77
2023/04/07 13:01:00;;;;;;;1.50;1.00;;;12.70;98.20;;;;;;5013750;28;20463;-78